createdAt,value
2023-04-26T00:00:12.047Z,9.60
2023-04-26T00:03:15.840Z,9.20
2023-04-26T00:06:05.801Z,8.60
2023-04-26T00:08:52.709Z,7.40
2023-04-26T00:11:39.508Z,7.50
2023-04-26T00:14:26.739Z,7.50
2023-04-26T00:17:13.133Z,5.80
2023-04-26T00:20:00.560Z,5.40
2023-04-26T00:22:47.382Z,5.00
2023-04-26T00:25:33.817Z,4.10
2023-04-26T00:28:20.354Z,4.40
2023-04-26T00:31:07.300Z,3.90
2023-04-26T00:33:54.163Z,4.50
2023-04-26T00:36:40.363Z,4.00
2023-04-26T00:39:27.524Z,3.70
2023-04-26T00:42:13.999Z,3.80
2023-04-26T00:45:01.142Z,3.60
2023-04-26T00:47:47.693Z,4.40
2023-04-26T00:50:35.409Z,4.20
2023-04-26T00:53:23.390Z,2.80
2023-04-26T00:56:11.094Z,3.70
2023-04-26T00:58:57.667Z,3.00
2023-04-26T01:01:44.622Z,3.60
2023-04-26T01:04:31.609Z,3.30
2023-04-26T01:07:18.531Z,2.90
2023-04-26T01:10:06.296Z,3.30
2023-04-26T01:12:53.742Z,3.00
2023-04-26T01:15:47.581Z,2.50
2023-04-26T01:18:35.203Z,3.30
2023-04-26T01:21:22.339Z,3.00
2023-04-26T01:24:13.236Z,3.60
2023-04-26T01:29:46.380Z,2.70
2023-04-26T01:32:33.023Z,3.00
2023-04-26T01:35:19.638Z,2.50
2023-04-26T01:38:08.613Z,3.00
2023-04-26T01:40:55.351Z,2.70
2023-04-26T01:43:42.210Z,2.90
2023-04-26T01:46:28.624Z,3.40
2023-04-26T01:49:15.012Z,3.00
2023-04-26T01:52:02.067Z,2.60
2023-04-26T01:54:49.604Z,3.20
2023-04-26T01:57:36.362Z,3.60
2023-04-26T02:00:23.023Z,3.70
2023-04-26T02:03:09.577Z,3.80
2023-04-26T02:05:56.154Z,3.10
2023-04-26T02:08:42.630Z,3.30
2023-04-26T02:11:29.276Z,3.00
2023-04-26T02:14:15.782Z,3.00
2023-04-26T02:17:04.029Z,2.80
2023-04-26T02:19:50.750Z,3.60
2023-04-26T02:22:37.622Z,3.70
2023-04-26T02:25:24.778Z,3.40
2023-04-26T02:28:11.719Z,3.60
2023-04-26T02:30:58.699Z,2.70
2023-04-26T02:33:45.564Z,3.10
2023-04-26T02:36:33.183Z,2.80
2023-04-26T02:39:19.438Z,3.30
2023-04-26T02:42:10.334Z,2.80
2023-04-26T02:44:57.150Z,2.40
2023-04-26T02:47:44.453Z,3.40
2023-04-26T02:50:31.111Z,2.70
2023-04-26T02:53:18.076Z,3.00
2023-04-26T02:56:04.549Z,3.60
2023-04-26T02:58:51.652Z,3.00
2023-04-26T03:01:38.666Z,3.00
2023-04-26T03:04:25.468Z,2.50
2023-04-26T03:07:12.054Z,2.70
2023-04-26T03:09:58.778Z,2.90
2023-04-26T03:12:45.421Z,3.20
2023-04-26T03:15:31.696Z,3.50
2023-04-26T03:18:19.400Z,3.20
2023-04-26T03:21:06.303Z,2.80
2023-04-26T03:23:52.894Z,2.80
2023-04-26T03:26:39.640Z,3.50
2023-04-26T03:29:26.286Z,2.70
2023-04-26T03:32:13.071Z,2.90
2023-04-26T03:34:59.881Z,3.40
2023-04-26T03:37:46.476Z,3.10
2023-04-26T03:40:33.015Z,3.70
2023-04-26T03:43:19.441Z,2.80
2023-04-26T03:46:05.855Z,3.10
2023-04-26T03:48:53.525Z,3.00
2023-04-26T03:51:40.295Z,2.80
2023-04-26T03:54:27.003Z,3.00
2023-04-26T03:57:14.947Z,2.60
2023-04-26T04:00:02.031Z,3.10
2023-04-26T04:02:49.982Z,2.80
2023-04-26T04:05:41.405Z,3.20
2023-04-26T04:08:27.874Z,2.50
2023-04-26T04:11:15.803Z,3.30
2023-04-26T04:14:03.756Z,3.80
2023-04-26T04:16:50.827Z,3.60
2023-04-26T04:19:37.763Z,2.80
2023-04-26T04:22:24.692Z,2.50
2023-04-26T04:25:11.854Z,3.20
2023-04-26T04:27:59.854Z,3.80
2023-04-26T04:30:47.314Z,3.60
2023-04-26T04:33:33.841Z,4.00
2023-04-26T04:36:20.839Z,3.80
2023-04-26T04:39:13.453Z,3.30
2023-04-26T04:42:00.536Z,3.10
2023-04-26T04:44:47.757Z,3.60
2023-04-26T04:47:37.863Z,3.00
2023-04-26T04:50:25.316Z,2.90
2023-04-26T04:53:14.687Z,2.40
2023-04-26T04:56:01.577Z,3.10
2023-04-26T04:58:49.111Z,2.30
2023-04-26T05:01:38.749Z,2.40
2023-04-26T05:04:29.797Z,3.30
2023-04-26T05:07:18.517Z,3.20
2023-04-26T05:10:05.819Z,2.80
2023-04-26T05:12:52.214Z,2.60
2023-04-26T05:15:38.984Z,2.60
2023-04-26T05:18:25.868Z,3.00
2023-04-26T05:21:12.844Z,3.20
2023-04-26T05:23:59.989Z,2.10
2023-04-26T05:26:47.264Z,2.80
2023-04-26T05:29:52.943Z,3.30
2023-04-26T05:33:03.358Z,2.00
2023-04-26T05:35:58.001Z,2.60
2023-04-26T05:38:45.196Z,2.00
2023-04-26T05:41:31.622Z,2.40
2023-04-26T05:44:18.492Z,2.40
2023-04-26T05:47:05.411Z,2.40
2023-04-26T05:49:52.043Z,2.90
2023-04-26T05:52:39.109Z,2.30
2023-04-26T05:55:25.483Z,2.70
2023-04-26T05:58:12.160Z,2.60
2023-04-26T06:00:59.532Z,2.90
2023-04-26T06:03:46.837Z,3.00
2023-04-26T06:06:34.545Z,2.20
2023-04-26T06:09:21.108Z,3.00
2023-04-26T06:12:07.698Z,2.70
2023-04-26T06:14:56.372Z,3.40
2023-04-26T06:17:44.305Z,2.50
2023-04-26T06:20:30.913Z,2.40
2023-04-26T06:23:20.197Z,3.10
2023-04-26T06:26:07.346Z,2.40
2023-04-26T06:28:54.064Z,2.30
2023-04-26T06:31:41.073Z,2.70
2023-04-26T06:34:30.508Z,2.70
2023-04-26T06:37:17.292Z,3.00
2023-04-26T06:40:04.206Z,2.70
2023-04-26T06:42:51.549Z,2.50
2023-04-26T06:45:38.153Z,2.50
2023-04-26T06:48:24.802Z,3.40
2023-04-26T06:51:11.260Z,3.10
2023-04-26T06:53:59.296Z,2.00
2023-04-26T06:56:46.203Z,3.30
2023-04-26T06:59:32.498Z,3.10
2023-04-26T07:02:19.367Z,2.70
2023-04-26T07:05:06.457Z,2.90
2023-04-26T07:07:53.150Z,2.90
2023-04-26T07:10:40.093Z,2.50
2023-04-26T07:13:26.897Z,2.10
2023-04-26T07:16:13.481Z,2.60
2023-04-26T07:18:59.836Z,2.90
2023-04-26T07:21:46.741Z,2.40
2023-04-26T07:24:33.130Z,3.60
2023-04-26T07:27:19.479Z,3.00
2023-04-26T07:30:06.706Z,2.90
2023-04-26T07:32:53.348Z,3.00
2023-04-26T07:35:40.306Z,2.70
2023-04-26T07:38:27.439Z,2.80
2023-04-26T07:41:16.445Z,2.50
2023-04-26T07:44:03.210Z,2.60
2023-04-26T07:46:49.513Z,2.60
2023-04-26T07:49:36.063Z,2.80
2023-04-26T07:52:23.030Z,2.20
2023-04-26T07:55:09.694Z,2.90
2023-04-26T07:57:56.747Z,2.30
2023-04-26T08:00:43.087Z,2.30
2023-04-26T08:03:29.596Z,2.60
2023-04-26T08:06:16.868Z,2.20
2023-04-26T08:09:05.031Z,2.50
2023-04-26T08:11:51.336Z,2.30
2023-04-26T08:14:38.723Z,2.10
2023-04-26T08:17:25.211Z,2.80
2023-04-26T08:20:11.753Z,2.20
2023-04-26T08:22:59.193Z,2.50
2023-04-26T08:25:47.283Z,2.30
2023-04-26T08:28:35.852Z,2.40
2023-04-26T08:31:23.025Z,2.70
2023-04-26T08:34:11.406Z,2.60
2023-04-26T08:36:58.199Z,3.00
2023-04-26T08:39:44.899Z,2.40
2023-04-26T08:42:32.172Z,2.40
2023-04-26T08:45:20.624Z,2.10
2023-04-26T08:48:14.988Z,2.90
2023-04-26T08:51:02.528Z,2.30
2023-04-26T08:53:53.236Z,3.50
2023-04-26T08:56:44.167Z,2.90
2023-04-26T09:02:19.883Z,2.60
2023-04-26T09:05:07.496Z,2.50
2023-04-26T09:07:57.852Z,3.10
2023-04-26T09:10:44.522Z,2.20
2023-04-26T09:13:30.917Z,3.40
2023-04-26T09:16:17.895Z,2.90
2023-04-26T09:19:04.502Z,2.90
2023-04-26T09:21:52.922Z,2.40
2023-04-26T09:24:52.173Z,2.40
2023-04-26T09:27:40.371Z,2.70
2023-04-26T09:30:28.560Z,2.50
2023-04-26T09:33:15.314Z,2.70
2023-04-26T09:36:13.392Z,2.60
2023-04-26T09:39:00.520Z,2.10
2023-04-26T09:41:47.025Z,1.90
2023-04-26T09:44:34.088Z,2.40
2023-04-26T09:47:22.169Z,2.70
2023-04-26T09:50:09.111Z,2.40
2023-04-26T09:52:56.805Z,2.80
2023-04-26T09:55:43.353Z,2.20
2023-04-26T09:58:29.985Z,2.50
2023-04-26T10:01:18.216Z,2.80
2023-04-26T10:04:06.870Z,2.60
2023-04-26T10:06:53.213Z,2.40
2023-04-26T10:09:39.959Z,2.00
2023-04-26T10:12:26.566Z,3.20
2023-04-26T10:15:13.128Z,2.80
2023-04-26T10:17:59.912Z,2.70
2023-04-26T10:20:53.135Z,3.50
2023-04-26T10:23:40.928Z,2.40
2023-04-26T10:26:54.526Z,2.40
2023-04-26T10:29:56.560Z,2.90
2023-04-26T10:32:53.248Z,2.90
2023-04-26T10:36:05.389Z,2.90
2023-04-26T10:39:25.261Z,2.70
2023-04-26T10:42:26.743Z,3.30
2023-04-26T10:45:28.205Z,2.60
2023-04-26T10:48:20.659Z,2.50
2023-04-26T10:51:12.859Z,3.30
2023-04-26T10:53:59.550Z,2.80
2023-04-26T10:56:48.966Z,2.50
2023-04-26T10:59:47.203Z,2.30
2023-04-26T11:02:57.973Z,2.20
2023-04-26T11:05:47.299Z,2.40
2023-04-26T11:08:34.341Z,2.80
2023-04-26T11:11:26.563Z,2.40
2023-04-26T11:14:14.477Z,2.20
2023-04-26T11:17:05.617Z,2.50
2023-04-26T11:19:52.171Z,2.40
2023-04-26T11:22:42.377Z,2.30
2023-04-26T11:28:16.365Z,2.30
2023-04-26T11:31:04.241Z,2.00
2023-04-26T11:33:51.044Z,2.30
2023-04-26T11:36:38.738Z,2.10
2023-04-26T11:39:25.401Z,3.20
2023-04-26T11:42:12.607Z,2.80
2023-04-26T11:45:01.642Z,2.80
2023-04-26T11:47:48.959Z,1.70
2023-04-26T11:50:37.580Z,2.40
2023-04-26T11:53:24.755Z,2.30
2023-04-26T11:56:18.825Z,1.60
2023-04-26T11:59:05.983Z,2.20
2023-04-26T12:01:53.627Z,1.90
2023-04-26T12:04:41.309Z,2.40
2023-04-26T12:07:34.611Z,2.10
2023-04-26T12:10:26.029Z,1.90
2023-04-26T12:13:14.088Z,2.10
2023-04-26T12:18:57.069Z,1.90
2023-04-26T12:21:44.598Z,2.60
2023-04-26T12:24:34.681Z,2.50
2023-04-26T12:27:22.091Z,2.20
2023-04-26T12:30:09.258Z,2.90
2023-04-26T12:33:05.770Z,2.20
2023-04-26T12:35:57.747Z,2.10
2023-04-26T12:38:44.382Z,2.30
2023-04-26T12:41:31.141Z,2.40
2023-04-26T12:44:19.596Z,2.20
2023-04-26T12:47:08.425Z,2.00
2023-04-26T12:49:55.095Z,2.00
2023-04-26T12:52:44.460Z,2.20
2023-04-26T12:55:32.548Z,2.30
2023-04-26T12:58:19.453Z,2.00
2023-04-26T13:01:06.184Z,1.90
2023-04-26T13:03:52.908Z,1.70
2023-04-26T13:06:39.893Z,1.80
2023-04-26T13:09:26.284Z,1.90
2023-04-26T13:12:14.221Z,1.80
2023-04-26T13:15:01.148Z,1.90
2023-04-26T13:17:47.733Z,2.00
2023-04-26T13:20:34.413Z,2.10
2023-04-26T13:23:21.094Z,1.90
2023-04-26T13:26:08.887Z,2.00
2023-04-26T13:28:55.937Z,1.80
2023-04-26T13:31:43.266Z,1.80
2023-04-26T13:34:30.916Z,2.00
2023-04-26T13:37:20.274Z,2.10
2023-04-26T13:40:07.624Z,1.80
2023-04-26T13:42:53.990Z,2.50
2023-04-26T13:45:40.519Z,2.20
2023-04-26T13:48:27.985Z,2.50
2023-04-26T13:51:14.399Z,2.00
2023-04-26T13:54:00.940Z,2.10
2023-04-26T13:56:47.610Z,2.50
2023-04-26T13:59:34.003Z,2.30
2023-04-26T14:02:21.652Z,2.60
2023-04-26T14:05:09.203Z,2.60
2023-04-26T14:07:55.876Z,3.20
2023-04-26T14:10:42.019Z,4.50
2023-04-26T14:13:28.423Z,2.50
2023-04-26T14:16:15.162Z,6.10
2023-04-26T14:19:02.121Z,13.90
2023-04-26T14:21:48.564Z,5.60
2023-04-26T14:24:35.457Z,4.30
2023-04-26T14:27:22.168Z,5.00
2023-04-26T14:30:09.132Z,3.70
2023-04-26T14:32:55.801Z,3.10
2023-04-26T14:35:42.173Z,2.50
2023-04-26T14:38:28.815Z,2.40
2023-04-26T14:41:16.609Z,1.70
2023-04-26T14:44:02.904Z,3.30
2023-04-26T14:46:49.409Z,2.50
2023-04-26T14:49:36.226Z,2.00
2023-04-26T14:52:26.931Z,2.70
2023-04-26T14:55:22.466Z,2.40
2023-04-26T14:58:08.717Z,4.40
2023-04-26T15:00:55.430Z,2.90
2023-04-26T15:03:42.039Z,4.10
2023-04-26T15:06:28.910Z,4.10
2023-04-26T15:09:15.385Z,3.10
2023-04-26T15:12:02.608Z,2.30
2023-04-26T15:14:49.131Z,3.50
2023-04-26T15:17:35.719Z,2.10
2023-04-26T15:20:22.482Z,3.30
2023-04-26T15:23:09.258Z,3.10
2023-04-26T15:25:55.526Z,3.20
2023-04-26T15:28:41.886Z,2.70
2023-04-26T15:31:28.736Z,2.10
2023-04-26T15:34:16.682Z,2.50
2023-04-26T15:37:03.053Z,2.50
2023-04-26T15:39:49.769Z,2.60
2023-04-26T15:42:36.680Z,3.00
2023-04-26T15:45:23.301Z,2.80
2023-04-26T15:48:12.159Z,2.90
2023-04-26T15:50:58.522Z,3.40
2023-04-26T15:53:45.423Z,3.10
2023-04-26T15:56:32.119Z,2.50
2023-04-26T15:59:18.810Z,2.50
2023-04-26T16:02:06.295Z,2.60
2023-04-26T16:04:53.204Z,5.00
2023-04-26T16:07:40.319Z,2.70
2023-04-26T16:10:27.167Z,3.80
2023-04-26T16:13:13.817Z,3.00
2023-04-26T16:16:00.709Z,3.10
2023-04-26T16:18:47.387Z,3.30
2023-04-26T16:21:34.263Z,3.40
2023-04-26T16:24:21.989Z,3.40
2023-04-26T16:27:09.584Z,2.70
2023-04-26T16:29:56.126Z,3.70
2023-04-26T16:32:43.501Z,3.40
2023-04-26T16:35:30.586Z,3.00
2023-04-26T16:38:18.634Z,5.30
2023-04-26T16:41:05.222Z,3.00
2023-04-26T16:43:53.150Z,5.40
2023-04-26T16:46:40.079Z,3.10
2023-04-26T16:49:26.703Z,5.10
2023-04-26T16:52:13.033Z,7.30
2023-04-26T16:54:59.692Z,6.00
2023-04-26T16:57:46.512Z,4.60
2023-04-26T17:00:33.005Z,6.60
2023-04-26T17:03:19.682Z,13.20
2023-04-26T17:06:07.783Z,4.80
2023-04-26T17:08:54.278Z,3.10
2023-04-26T17:11:43.569Z,3.10
2023-04-26T17:14:30.232Z,3.50
2023-04-26T17:17:16.834Z,4.70
2023-04-26T17:20:06.893Z,4.10
2023-04-26T17:22:53.375Z,7.80
2023-04-26T17:25:39.680Z,4.70
2023-04-26T17:28:26.556Z,3.80
2023-04-26T17:31:12.935Z,3.70
2023-04-26T17:33:59.302Z,3.80
2023-04-26T17:36:47.606Z,3.80
2023-04-26T17:39:33.571Z,3.10
2023-04-26T17:42:20.761Z,3.90
2023-04-26T17:45:07.728Z,3.10
2023-04-26T17:47:54.014Z,3.70
2023-04-26T17:50:40.573Z,3.80
2023-04-26T17:53:27.545Z,3.10
2023-04-26T17:56:13.864Z,3.40
2023-04-26T17:59:03.024Z,3.20
2023-04-26T18:01:50.065Z,3.50
2023-04-26T18:04:37.282Z,5.60
2023-04-26T18:07:23.772Z,6.50
2023-04-26T18:10:10.969Z,6.40
2023-04-26T18:12:57.841Z,5.30
2023-04-26T18:15:44.253Z,120.90
2023-04-26T18:18:30.678Z,7.10
2023-04-26T18:21:17.082Z,6.10
2023-04-26T18:24:03.810Z,5.50
2023-04-26T18:26:49.988Z,6.40
2023-04-26T18:29:36.643Z,6.70
2023-04-26T18:32:23.177Z,6.90
2023-04-26T18:35:10.153Z,15.60
2023-04-26T18:37:57.226Z,17.80
2023-04-26T18:40:44.725Z,12.90
2023-04-26T18:43:31.642Z,17.50
2023-04-26T18:46:18.194Z,19.50
2023-04-26T18:49:05.080Z,29.50
2023-04-26T18:51:51.964Z,20.50
2023-04-26T18:54:39.002Z,17.10
2023-04-26T18:57:26.788Z,16.50
2023-04-26T19:00:13.667Z,20.20
2023-04-26T19:03:00.758Z,18.90
2023-04-26T19:05:47.337Z,18.00
2023-04-26T19:08:34.149Z,22.00
2023-04-26T19:11:21.283Z,20.40
2023-04-26T19:14:07.739Z,21.60
2023-04-26T19:16:54.375Z,22.40
2023-04-26T19:19:40.665Z,20.70
2023-04-26T19:22:27.329Z,22.50
2023-04-26T19:25:14.898Z,20.10
2023-04-26T19:28:01.596Z,21.00
2023-04-26T19:30:47.951Z,21.60
2023-04-26T19:33:34.640Z,20.80
2023-04-26T19:36:21.011Z,14.50
2023-04-26T19:39:07.155Z,15.60
2023-04-26T19:41:53.571Z,14.90
2023-04-26T19:44:39.977Z,15.30
2023-04-26T19:47:26.831Z,14.90
2023-04-26T19:50:13.461Z,13.00
2023-04-26T19:53:00.313Z,13.60
2023-04-26T19:55:46.911Z,14.20
2023-04-26T19:58:33.544Z,13.70
2023-04-26T20:01:20.557Z,12.80
2023-04-26T20:04:07.339Z,15.00
2023-04-26T20:06:53.859Z,14.50
2023-04-26T20:09:40.351Z,13.60
2023-04-26T20:12:27.387Z,16.70
2023-04-26T20:15:15.216Z,16.30
2023-04-26T20:18:02.549Z,19.70
2023-04-26T20:20:51.521Z,17.70
2023-04-26T20:23:38.210Z,17.90
2023-04-26T20:26:24.911Z,18.30
2023-04-26T20:29:11.506Z,21.10
2023-04-26T20:31:58.276Z,19.40
2023-04-26T20:34:45.124Z,21.40
2023-04-26T20:37:32.004Z,20.30
2023-04-26T20:40:18.342Z,20.30
2023-04-26T20:43:08.862Z,19.90
2023-04-26T20:45:56.011Z,20.00
2023-04-26T20:48:43.579Z,21.20
2023-04-26T20:51:30.546Z,22.00
2023-04-26T20:54:17.182Z,29.70
2023-04-26T20:57:04.106Z,26.00
2023-04-26T20:59:50.819Z,27.00
2023-04-26T21:02:40.593Z,29.30
2023-04-26T21:05:27.835Z,24.20
2023-04-26T21:08:15.272Z,24.00
2023-04-26T21:11:02.196Z,26.60
2023-04-26T21:13:49.577Z,21.60
2023-04-26T21:16:36.233Z,20.80
2023-04-26T21:19:22.539Z,16.30
2023-04-26T21:22:11.917Z,19.60
2023-04-26T21:24:58.461Z,23.50
2023-04-26T21:27:46.353Z,22.70
2023-04-26T21:30:33.462Z,19.60
2023-04-26T21:33:20.216Z,19.10
2023-04-26T21:36:07.418Z,21.70
2023-04-26T21:38:55.464Z,18.00
2023-04-26T21:41:42.004Z,25.40
2023-04-26T21:44:29.726Z,26.20
2023-04-26T21:47:16.377Z,26.00
2023-04-26T21:50:03.528Z,23.00
2023-04-26T21:52:50.625Z,26.30
2023-04-26T21:55:37.650Z,26.00
2023-04-26T21:58:24.343Z,31.10
2023-04-26T22:01:14.411Z,27.20
2023-04-26T22:04:02.844Z,29.40
2023-04-26T22:06:50.476Z,31.90
2023-04-26T22:09:37.126Z,30.00
2023-04-26T22:12:23.837Z,28.10
2023-04-26T22:15:11.139Z,26.70
2023-04-26T22:17:57.705Z,21.70
2023-04-26T22:20:44.461Z,22.50
2023-04-26T22:23:31.478Z,26.00
2023-04-26T22:26:18.457Z,29.20
2023-04-26T22:29:05.081Z,24.60
2023-04-26T22:31:51.903Z,26.50
2023-04-26T22:34:38.255Z,25.20
2023-04-26T22:37:24.841Z,23.60
2023-04-26T22:40:13.004Z,21.20
2023-04-26T22:42:59.642Z,21.60
2023-04-26T22:45:46.373Z,21.70
2023-04-26T22:48:33.030Z,20.00
2023-04-26T22:51:19.659Z,20.00
2023-04-26T22:54:06.563Z,18.30
2023-04-26T22:56:52.918Z,18.70
2023-04-26T22:59:39.252Z,17.10
2023-04-26T23:02:26.052Z,14.70
2023-04-26T23:05:12.693Z,10.80
2023-04-26T23:07:59.084Z,12.40
2023-04-26T23:10:45.580Z,13.50
2023-04-26T23:13:32.497Z,12.80
2023-04-26T23:16:18.772Z,10.70
2023-04-26T23:19:05.257Z,9.60
2023-04-26T23:21:51.805Z,8.80
2023-04-26T23:24:38.300Z,8.40
2023-04-26T23:27:24.925Z,9.50
2023-04-26T23:30:14.011Z,9.60
2023-04-26T23:33:00.764Z,8.70
2023-04-26T23:35:47.344Z,9.00
2023-04-26T23:38:33.427Z,7.60
2023-04-26T23:41:20.102Z,7.30
2023-04-26T23:44:07.298Z,9.10
2023-04-26T23:46:53.686Z,8.80
2023-04-26T23:49:40.360Z,8.60
2023-04-26T23:52:27.714Z,8.10
2023-04-26T23:55:13.991Z,8.00
2023-04-26T23:58:00.577Z,6.70
